Latest  Newer  Older  Last 2 hours animation  Current image  Latest image 
Rain/snow radar  Infrared sat images 
Real-time lightning map

All time is UTC (add 2 hours to UTC in wintertime, 3 hours to UTC in DST for Latvia local time)

2020/06/01 21:50 EVRA 012150Z 06006KT CAVOK 11/02 Q1020 NOSIG
2020/06/01 21:50 EVLA 012150Z AUTO 04006KT 9999 BKN056/// 13/09 Q1020
2020/06/01 21:50 EVVA 012150Z AUTO 05004KT CAVOK 12/08 Q1021
2020/06/01 21:50 EYKA 012150Z 36006KT 330V030 CAVOK 09/02 Q1017
2020/06/01 21:50 EYPA 012150Z AUTO 01007KT 9999 BKN069/// 13/07 Q1020
2020/06/01 21:50 EYSA 012150Z 05005KT CAVOK 09/04 Q1019 BLU NOSIG
2020/06/01 21:50 EYVI 012150Z 01009KT CAVOK 08/02 Q1016 NOSIG
2020/06/01 14:50 EEKA 011450Z 01004KT CAVOK 14/08 Q1023
2020/06/01 21:50 EEKE 012150Z AUTO 06005KT 030V090 9999NDV NSC 11/06 Q1022
2020/06/01 12:50 EEPU 011250Z 03013KT 010V070 CAVOK 16/05 Q1022
2020/06/01 21:50 EETN 012150Z AUTO 08003KT CAVOK 07/01 Q1023
2020/06/01 21:50 EETU 012150Z AUTO 04004KT 010V070 9999 NCD 07/01 Q1021
   RIGA AIRPORT     EVRA               56 55N  023 58E   10   X     T          6 LV
   LIEPAJA INTL     EVLA        26406  56 31N  021 06E    4   X                8 LV
   VENTPILS         EVVA               57 21N  021 33E    6   X                8 LV
   KAUNAS           EYKA               54 54N  023 55E   77   X     T          6 LT
   PALANGA INTL     EYPA               55 55N  021 03E   10   X                6 LT
   SIAULIAI INTL    EYSA               55 54N  023 24E  135   X     T          6 LT
   VILNIUS INTL     EYVI        26730  54 38N  025 17E  197   X     T          6 LT
   KARDLA           EEKA        26116  58 59N  022 50E    4   X                8 EE
   KURESSAARE       EEKE               58 14N  022 31E    4   X                8 EE
   PARNU            EEPU               58 25N  024 28E   14   X                8 EE
   TALLINN          EETN        26038  59 24N  024 49E   40   X     T          8 EE
   TARTU            EETU               58 19N  026 41E   67   X                8 EE

cloud coverage image from sat24.com and METAR data from weather.noaa.gov